Stewart, Texas
Current Conditions -  °F | °C
As of 2:55 AM on Sunday 23 Nov 2014 (Local Time) from KRFI Reporting Station
Light Rain Light Rain  
Wind Chill: 60°   Ceiling: 10000
Heat Index: 60°   Visibility: 10mi
Dew Point: 60°   Wind: 8mph
Humidity: 100%   Direction: 140°SE
Pressure: 29.66"   Gusts: NA
Location:  32.1449°N, 94.7416°W
Report Text: KRFI 230855Z AUTO 14007KT 10SM -RA SCT050 SCT065 OVC100 15/15 A2966 RMK AO2 T01530153
Loading
Personal Weather Stations






























Interactive Weather Map New forecast layout! Learn more

10-Day Weather Forecast

Advertisements
Track Severe Weather on mobile